METAR Data
IDs: Format: Raw Decoded Include TAF

Data at: 1601 UTC 18 Feb 2019

KHWD 181554Z 05005KT 10SM CLR 04/M01 A3021 RMK AO2 SLP242 T00391006
No TAF found for KHWD

KBFL 181554Z 00000KT 10SM SCT031 SCT060 OVC080 05/02 A3015 RMK AO2 SLP211 T00500022

KBFL 181120Z 1812/1912 VRB04KT P6SM SCT040

KIFP 181550Z 05004KT 10SM OVC070 07/02 A2999

KIFP 181136Z 1812/1912 15006KT P6SM OVC060
  FM181500 36007KT P6SM BKN050
  FM181900 34011KT P6SM BKN250
  FM190600 03005KT P6SM BKN250